Time,TemperatureF,DewpointF,PressureIn,WindDirection,WindDirectionDegrees,WindSpeedMPH,WindSpeedGustMPH,Humidity,HourlyPrecipIn,Conditions,Clouds,dailyrainin,SolarRadiationWatts/m^2,SoftwareType,DateUTC
2013-05-12 00:04:00,58.3,50.7,30.04,West,264,0.0,1.0,76,0.00,,,0.00,0.0,meteohub,2013-05-12 07:04:00,
2013-05-12 00:09:00,58.1,50.9,30.04,West,264,0.0,0.0,77,0.00,,,0.00,0.0,meteohub,2013-05-12 07:09:00,
2013-05-12 00:14:00,57.9,50.0,30.04,West,264,0.0,0.0,75,0.00,,,0.00,0.0,meteohub,2013-05-12 07:14:00,
2013-05-12 00:19:00,57.7,49.8,30.04,West,264,0.0,2.0,75,0.00,,,0.00,0.0,meteohub,2013-05-12 07:19:00,
2013-05-12 00:24:00,57.6,49.6,30.04,West,264,0.0,2.0,75,0.00,,,0.00,0.0,meteohub,2013-05-12 07:24:00,
2013-05-12 00:29:00,57.6,49.6,30.04,West,264,1.0,2.0,75,0.00,,,0.00,0.0,meteohub,2013-05-12 07:29:00,
2013-05-12 00:35:00,57.4,49.5,30.03,West,264,0.0,1.0,75,0.00,,,0.00,0.0,meteohub,2013-05-12 07:35:00,
2013-05-12 00:40:00,57.2,49.3,30.03,West,264,0.0,1.0,75,0.00,,,0.00,0.0,meteohub,2013-05-12 07:40:00,
2013-05-12 00:45:00,57.0,49.5,30.03,West,264,0.0,1.0,76,0.00,,,0.00,0.0,meteohub,2013-05-12 07:45:00,
2013-05-12 00:50:00,56.8,48.9,30.03,West,264,0.0,1.0,75,0.00,,,0.00,0.0,meteohub,2013-05-12 07:50:00,
2013-05-12 00:55:00,56.7,49.5,30.03,West,264,0.0,1.0,77,0.00,,,0.00,0.0,meteohub,2013-05-12 07:55:00,
2013-05-12 01:00:00,56.7,50.2,30.02,West,264,0.0,1.0,79,0.00,,,0.00,0.0,meteohub,2013-05-12 08:00:00,
2013-05-12 01:05:00,56.5,50.0,30.03,West,264,0.0,1.0,79,0.00,,,0.00,0.0,meteohub,2013-05-12 08:05:00,
2013-05-12 01:10:00,56.5,50.0,30.03,West,264,0.0,1.0,79,0.00,,,0.00,0.0,meteohub,2013-05-12 08:10:00,
2013-05-12 01:15:00,56.3,49.8,30.03,West,264,0.0,0.0,79,0.00,,,0.00,0.0,meteohub,2013-05-12 08:15:00,
2013-05-12 01:20:00,56.3,49.5,30.03,West,264,0.0,1.0,78,0.00,,,0.00,0.0,meteohub,2013-05-12 08:20:00,
2013-05-12 01:25:00,56.3,49.5,30.03,West,264,0.0,1.0,78,0.00,,,0.00,0.0,meteohub,2013-05-12 08:25:00,
2013-05-12 01:30:00,56.3,49.5,30.03,West,264,0.0,1.0,78,0.00,,,0.00,0.0,meteohub,2013-05-12 08:30:00,
2013-05-12 01:35:00,56.3,49.5,30.03,West,264,0.0,0.0,78,0.00,,,0.00,0.0,meteohub,2013-05-12 08:35:00,
2013-05-12 01:40:00,56.3,49.8,30.03,West,264,0.0,0.0,79,0.00,,,0.00,0.0,meteohub,2013-05-12 08:40:00,
2013-05-12 01:45:00,56.3,49.8,30.02,West,264,0.0,0.0,79,0.00,,,0.00,0.0,meteohub,2013-05-12 08:45:00,
2013-05-12 01:50:00,56.1,49.3,30.03,West,264,1.0,0.0,78,0.00,,,0.00,0.0,meteohub,2013-05-12 08:50:00,
2013-05-12 01:55:00,56.1,50.4,30.03,West,264,0.0,2.0,81,0.00,,,0.00,0.0,meteohub,2013-05-12 08:55:00,
2013-05-12 02:00:00,55.9,49.5,30.04,West,264,0.0,2.0,79,0.00,,,0.00,0.0,meteohub,2013-05-12 09:00:00,
2013-05-12 02:05:00,55.9,49.5,30.03,West,264,0.0,3.0,79,0.00,,,0.00,0.0,meteohub,2013-05-12 09:05:00,
2013-05-12 02:10:00,55.9,49.5,30.04,West,263,0.0,1.0,79,0.00,,,0.00,0.0,meteohub,2013-05-12 09:10:00,
2013-05-12 02:15:00,55.9,49.5,30.03,West,264,0.0,2.0,79,0.00,,,0.00,0.0,meteohub,2013-05-12 09:15:00,
2013-05-12 02:20:00,55.9,49.5,30.03,West,264,0.0,2.0,79,0.00,,,0.00,0.0,meteohub,2013-05-12 09:20:00,
2013-05-12 02:25:00,55.9,50.2,30.02,West,264,0.0,1.0,81,0.00,,,0.00,0.0,meteohub,2013-05-12 09:25:00,
2013-05-12 02:30:00,56.1,50.4,30.02,West,264,0.0,0.0,81,0.00,,,0.00,0.0,meteohub,2013-05-12 09:30:00,
2013-05-12 02:35:00,56.1,49.6,30.00,West,264,0.0,1.0,79,0.00,,,0.00,0.0,meteohub,2013-05-12 09:35:00,
2013-05-12 02:40:00,55.9,49.5,30.00,West,264,1.0,1.0,79,0.00,,,0.00,0.0,meteohub,2013-05-12 09:40:00,
2013-05-12 02:45:00,55.9,49.5,30.00,West,264,0.0,2.0,79,0.00,,,0.00,0.0,meteohub,2013-05-12 09:45:00,
2013-05-12 02:50:00,55.9,49.5,30.00,West,264,0.0,2.0,79,0.00,,,0.00,0.0,meteohub,2013-05-12 09:50:00,
2013-05-12 02:55:00,55.9,50.2,30.00,West,264,0.0,2.0,81,0.00,,,0.00,0.0,meteohub,2013-05-12 09:55:00,
2013-05-12 03:00:00,55.9,49.8,30.00,West,264,0.0,2.0,80,0.00,,,0.00,0.0,meteohub,2013-05-12 10:00:00,
2013-05-12 03:05:00,55.9,49.8,30.00,West,264,0.0,2.0,80,0.00,,,0.00,0.0,meteohub,2013-05-12 10:05:00,
2013-05-12 03:10:00,55.8,49.6,30.00,West,264,0.0,2.0,80,0.00,,,0.00,0.0,meteohub,2013-05-12 10:10:00,
2013-05-12 03:15:00,55.9,50.2,30.00,West,264,0.0,2.0,81,0.00,,,0.00,0.0,meteohub,2013-05-12 10:15:00,
2013-05-12 03:20:00,55.9,49.5,30.00,West,264,0.0,1.0,79,0.00,,,0.00,0.0,meteohub,2013-05-12 10:20:00,
2013-05-12 03:26:00,55.9,49.8,30.00,West,264,1.0,2.0,80,0.00,,,0.00,0.0,meteohub,2013-05-12 10:26:00,
2013-05-12 03:31:00,55.9,50.2,30.00,West,264,0.0,2.0,81,0.00,,,0.00,0.0,meteohub,2013-05-12 10:31:00,
2013-05-12 03:36:00,55.8,49.6,30.00,West,264,0.0,2.0,80,0.00,,,0.00,0.0,meteohub,2013-05-12 10:36:00,
2013-05-12 03:41:00,55.8,50.0,30.00,West,264,0.0,2.0,81,0.00,,,0.00,0.0,meteohub,2013-05-12 10:41:00,
2013-05-12 03:46:00,55.9,50.2,30.00,West,264,0.0,2.0,81,0.00,,,0.00,0.0,meteohub,2013-05-12 10:46:00,
2013-05-12 03:51:00,55.9,50.2,30.00,West,264,0.0,1.0,81,0.00,,,0.00,0.0,meteohub,2013-05-12 10:51:00,
2013-05-12 03:56:00,55.9,50.2,29.99,West,264,0.0,1.0,81,0.00,,,0.00,0.0,meteohub,2013-05-12 10:56:00,
2013-05-12 04:01:00,55.9,50.2,29.99,West,264,1.0,1.0,81,0.00,,,0.00,0.0,meteohub,2013-05-12 11:01:00,
2013-05-12 04:06:00,55.9,49.8,29.99,West,264,1.0,2.0,80,0.00,,,0.00,0.0,meteohub,2013-05-12 11:06:00,
2013-05-12 04:11:00,55.9,50.5,29.99,NNE,16,0.0,5.0,82,0.00,,,0.00,0.0,meteohub,2013-05-12 11:11:00,
2013-05-12 04:16:00,55.9,50.5,29.99,NNE,16,1.0,5.0,82,0.00,,,0.00,0.0,meteohub,2013-05-12 11:16:00,
2013-05-12 04:21:00,55.9,49.8,29.99,NNE,16,0.0,5.0,80,0.00,,,0.00,0.0,meteohub,2013-05-12 11:21:00,
2013-05-12 04:26:00,55.9,49.5,29.99,NNE,16,0.0,2.0,79,0.00,,,0.00,0.0,meteohub,2013-05-12 11:26:00,
2013-05-12 04:31:00,55.9,49.5,29.99,NNE,16,0.0,2.0,79,0.00,,,0.00,0.0,meteohub,2013-05-12 11:31:00,
2013-05-12 04:36:00,55.9,49.1,29.99,NW,313,3.0,3.0,78,0.00,,,0.00,0.0,meteohub,2013-05-12 11:36:00,
2013-05-12 04:41:00,55.8,49.3,29.99,NW,313,0.0,3.0,79,0.00,,,0.00,0.0,meteohub,2013-05-12 11:41:00,
2013-05-12 04:46:00,55.8,50.4,29.98,NW,313,0.0,3.0,82,0.00,,,0.00,0.0,meteohub,2013-05-12 11:46:00,
2013-05-12 04:51:00,55.8,50.0,29.99,NW,313,1.0,3.0,81,0.00,,,0.00,0.0,meteohub,2013-05-12 11:51:00,
2013-05-12 04:56:00,55.8,49.6,29.99,NW,313,1.0,2.0,80,0.00,,,0.00,0.0,meteohub,2013-05-12 11:56:00,
2013-05-12 05:01:00,55.6,49.1,29.99,NW,313,2.0,2.0,79,0.00,,,0.00,0.0,meteohub,2013-05-12 12:01:00,
2013-05-12 05:06:00,55.6,48.9,29.99,NW,313,0.0,2.0,78,0.00,,,0.00,0.0,meteohub,2013-05-12 12:06:00,
2013-05-12 05:11:00,55.6,49.8,30.00,NW,313,2.0,3.0,81,0.00,,,0.00,0.0,meteohub,2013-05-12 12:11:00,
2013-05-12 05:16:00,55.8,50.4,30.02,West,276,3.0,6.0,82,0.00,,,0.00,0.0,meteohub,2013-05-12 12:16:00,
2013-05-12 05:21:00,56.8,51.8,30.01,WNW,285,9.0,18.0,83,0.02,,,0.02,0.0,meteohub,2013-05-12 12:21:00,
2013-05-12 05:26:00,57.4,52.3,30.02,NE,40,5.0,18.0,83,0.03,,,0.03,0.0,meteohub,2013-05-12 12:26:00,
2013-05-12 05:31:00,57.6,53.1,30.03,East,92,1.0,18.0,85,0.03,,,0.03,0.0,meteohub,2013-05-12 12:31:00,
2013-05-12 05:36:00,57.2,53.6,30.03,East,92,0.0,10.0,88,0.04,,,0.04,0.0,meteohub,2013-05-12 12:36:00,
2013-05-12 05:41:00,57.0,53.8,30.03,NE,34,0.0,8.0,89,0.04,,,0.04,0.0,meteohub,2013-05-12 12:41:00,
2013-05-12 05:46:00,56.5,53.6,30.03,NE,46,2.0,5.0,90,0.04,,,0.04,0.0,meteohub,2013-05-12 12:46:00,
2013-05-12 05:51:00,56.3,53.8,30.04,NE,46,0.0,5.0,91,0.05,,,0.04,0.0,meteohub,2013-05-12 12:51:00,
2013-05-12 05:56:00,56.1,53.6,30.04,NE,46,0.0,4.0,91,0.05,,,0.05,0.0,meteohub,2013-05-12 12:56:00,
2013-05-12 06:02:00,56.1,53.6,30.04,NE,46,1.0,3.0,91,0.06,,,0.06,0.0,meteohub,2013-05-12 13:02:00,
2013-05-12 06:07:00,55.9,53.6,30.04,NE,46,0.0,2.0,92,0.07,,,0.06,0.0,meteohub,2013-05-12 13:07:00,
2013-05-12 06:12:00,55.9,53.6,30.04,NE,46,1.0,2.0,92,0.07,,,0.07,0.0,meteohub,2013-05-12 13:12:00,
2013-05-12 06:17:00,55.9,53.6,30.04,NE,46,0.0,2.0,92,0.07,,,0.07,0.0,meteohub,2013-05-12 13:17:00,
2013-05-12 06:22:00,55.8,53.4,30.04,NE,46,0.0,1.0,92,0.05,,,0.07,0.0,meteohub,2013-05-12 13:22:00,
2013-05-12 06:27:00,55.8,53.8,30.04,NE,46,2.0,2.0,93,0.04,,,0.07,0.0,meteohub,2013-05-12 13:27:00,
2013-05-12 06:32:00,55.8,53.8,30.04,NE,46,1.0,2.0,93,0.03,,,0.07,0.0,meteohub,2013-05-12 13:32:00,
2013-05-12 06:37:00,55.6,53.6,30.04,NE,46,0.0,2.0,93,0.04,,,0.08,5.0,meteohub,2013-05-12 13:37:00,
2013-05-12 06:42:00,55.6,54.0,30.05,NE,46,0.0,3.0,94,0.04,,,0.08,0.0,meteohub,2013-05-12 13:42:00,
2013-05-12 06:47:00,55.4,53.8,30.05,NE,46,0.0,3.0,94,0.05,,,0.09,5.0,meteohub,2013-05-12 13:47:00,
2013-05-12 06:52:00,55.4,53.8,30.04,NE,46,0.0,3.0,94,0.04,,,0.09,5.0,meteohub,2013-05-12 13:52:00,
2013-05-12 06:57:00,55.4,54.0,30.04,NE,46,0.0,2.0,95,0.05,,,0.10,7.0,meteohub,2013-05-12 13:57:00,
2013-05-12 07:02:00,55.4,54.0,30.05,NE,46,0.0,1.0,95,0.05,,,0.11,7.0,meteohub,2013-05-12 14:02:00,
2013-05-12 07:07:00,55.4,54.0,30.06,NE,46,1.0,1.0,95,0.05,,,0.12,7.0,meteohub,2013-05-12 14:07:00,
2013-05-12 07:12:00,55.4,54.0,30.06,NE,46,1.0,2.0,95,0.06,,,0.13,7.0,meteohub,2013-05-12 14:12:00,
2013-05-12 07:17:00,55.4,54.0,30.06,NE,46,2.0,2.0,95,0.08,,,0.14,7.0,meteohub,2013-05-12 14:17:00,
2013-05-12 07:22:00,55.0,53.6,30.07,NE,46,2.0,3.0,95,0.09,,,0.16,5.0,meteohub,2013-05-12 14:22:00,
2013-05-12 07:27:00,55.0,53.6,30.07,NE,46,0.0,4.0,95,0.11,,,0.18,9.0,meteohub,2013-05-12 14:27:00,
2013-05-12 07:32:00,55.2,54.1,30.07,South,185,2.0,5.0,96,0.11,,,0.19,12.0,meteohub,2013-05-12 14:32:00,
2013-05-12 07:37:00,55.4,54.3,30.07,South,185,0.0,5.0,96,0.12,,,0.20,26.0,meteohub,2013-05-12 14:37:00,
2013-05-12 07:42:00,55.4,54.3,30.07,South,185,1.0,5.0,96,0.12,,,0.20,21.0,meteohub,2013-05-12 14:42:00,
2013-05-12 07:47:00,55.4,54.3,30.07,SSW,193,2.0,4.0,96,0.11,,,0.20,19.0,meteohub,2013-05-12 14:47:00,
2013-05-12 07:52:00,55.4,54.3,30.07,SSW,193,0.0,4.0,96,0.10,,,0.20,21.0,meteohub,2013-05-12 14:52:00,
2013-05-12 07:57:00,55.4,54.3,30.08,West,263,1.0,4.0,96,0.10,,,0.21,14.0,meteohub,2013-05-12 14:57:00,
2013-05-12 08:02:00,55.4,54.3,30.09,WNW,294,2.0,4.0,96,0.10,,,0.21,12.0,meteohub,2013-05-12 15:02:00,
2013-05-12 08:07:00,55.6,54.7,30.09,WNW,292,1.0,4.0,97,0.09,,,0.22,12.0,meteohub,2013-05-12 15:07:00,
2013-05-12 08:12:00,55.4,54.5,30.08,South,186,2.0,4.0,97,0.10,,,0.24,18.0,meteohub,2013-05-12 15:12:00,
2013-05-12 08:17:00,55.6,54.7,30.08,South,184,0.0,4.0,97,0.10,,,0.25,28.0,meteohub,2013-05-12 15:17:00,
2013-05-12 08:22:00,55.6,54.7,30.08,South,184,0.0,3.0,97,0.11,,,0.27,23.0,meteohub,2013-05-12 15:22:00,
2013-05-12 08:27:00,55.8,54.9,30.08,South,184,2.0,3.0,97,0.09,,,0.27,23.0,meteohub,2013-05-12 15:27:00,
2013-05-12 08:32:00,55.8,54.9,30.09,SSW,197,1.0,2.0,97,0.08,,,0.28,32.0,meteohub,2013-05-12 15:32:00,
2013-05-12 08:37:00,55.9,55.4,30.09,SSW,197,1.0,3.0,98,0.08,,,0.28,39.0,meteohub,2013-05-12 15:37:00,
2013-05-12 08:42:00,55.8,54.9,30.09,SSW,197,0.0,3.0,97,0.09,,,0.28,37.0,meteohub,2013-05-12 15:42:00,
2013-05-12 08:47:00,55.8,54.9,30.09,SSW,197,0.0,3.0,97,0.09,,,0.29,49.0,meteohub,2013-05-12 15:47:00,
2013-05-12 08:52:00,55.9,55.0,30.09,SSW,197,1.0,2.0,97,0.08,,,0.29,44.0,meteohub,2013-05-12 15:52:00,
2013-05-12 08:57:00,55.9,55.0,30.09,SSW,197,0.0,2.0,97,0.09,,,0.30,49.0,meteohub,2013-05-12 15:57:00,
2013-05-12 09:02:00,56.1,55.6,30.09,SSW,197,0.0,2.0,98,0.08,,,0.30,72.0,meteohub,2013-05-12 16:02:00,
2013-05-12 09:07:00,56.1,55.6,30.09,SSW,197,0.0,2.0,98,0.07,,,0.30,60.0,meteohub,2013-05-12 16:07:00,
2013-05-12 09:12:00,56.3,55.8,30.09,SSW,197,0.0,0.0,98,0.07,,,0.31,62.0,meteohub,2013-05-12 16:12:00,
2013-05-12 09:17:00,56.5,55.9,30.09,SSW,197,0.0,2.0,98,0.05,,,0.31,77.0,meteohub,2013-05-12 16:17:00,
2013-05-12 09:22:00,56.5,55.9,30.09,SSW,197,2.0,2.0,98,0.04,,,0.31,54.0,meteohub,2013-05-12 16:22:00,
2013-05-12 09:27:00,56.5,55.9,30.08,SSW,197,0.0,2.0,98,0.04,,,0.31,69.0,meteohub,2013-05-12 16:27:00,
2013-05-12 09:32:00,56.7,56.1,30.09,SSW,197,0.0,2.0,98,0.03,,,0.31,60.0,meteohub,2013-05-12 16:32:00,
2013-05-12 09:37:00,56.7,56.1,30.08,SSW,197,0.0,2.0,98,0.03,,,0.31,67.0,meteohub,2013-05-12 16:37:00,
2013-05-12 09:42:00,56.7,56.1,30.08,SSW,197,0.0,2.0,98,0.03,,,0.32,90.0,meteohub,2013-05-12 16:42:00,
2013-05-12 09:47:00,56.8,56.3,30.08,SSW,197,0.0,2.0,98,0.03,,,0.32,90.0,meteohub,2013-05-12 16:47:00,
2013-05-12 09:52:00,57.0,56.1,30.07,SSW,197,0.0,1.0,97,0.02,,,0.32,105.0,meteohub,2013-05-12 16:52:00,
2013-05-12 09:57:00,57.2,56.3,30.08,SSW,197,1.0,1.0,97,0.02,,,0.32,98.0,meteohub,2013-05-12 16:57:00,
2013-05-12 10:02:00,57.2,56.3,30.08,SSW,197,1.0,2.0,97,0.02,,,0.32,77.0,meteohub,2013-05-12 17:02:00,
2013-05-12 10:07:00,57.2,56.3,30.08,SSW,197,1.0,2.0,97,0.01,,,0.32,77.0,meteohub,2013-05-12 17:07:00,
2013-05-12 10:12:00,57.2,56.1,30.08,SSW,197,0.0,3.0,96,0.01,,,0.32,98.0,meteohub,2013-05-12 17:12:00,
2013-05-12 10:17:00,57.2,56.1,30.08,SSW,197,2.0,3.0,96,0.01,,,0.32,100.0,meteohub,2013-05-12 17:17:00,
2013-05-12 10:22:00,57.4,56.3,30.08,SSW,200,0.0,3.0,96,0.01,,,0.32,142.0,meteohub,2013-05-12 17:22:00,
2013-05-12 10:27:00,57.4,56.3,30.08,SSW,200,2.0,3.0,96,0.01,,,0.32,169.0,meteohub,2013-05-12 17:27:00,
2013-05-12 10:32:00,57.6,56.5,30.09,West,275,5.0,5.0,96,0.01,,,0.32,107.0,meteohub,2013-05-12 17:32:00,
2013-05-12 10:37:00,57.6,56.5,30.08,West,277,1.0,6.0,96,0.01,,,0.32,165.0,meteohub,2013-05-12 17:37:00,
2013-05-12 10:42:00,57.7,56.7,30.08,West,277,2.0,6.0,96,0.00,,,0.32,181.0,meteohub,2013-05-12 17:42:00,
2013-05-12 10:47:00,58.1,57.0,30.08,West,277,0.0,6.0,96,0.00,,,0.32,158.0,meteohub,2013-05-12 17:47:00,
2013-05-12 10:52:00,58.5,57.4,30.08,West,277,0.0,3.0,96,0.00,,,0.32,188.0,meteohub,2013-05-12 17:52:00,
2013-05-12 10:57:00,58.8,57.7,30.09,West,277,1.0,3.0,96,0.00,,,0.32,172.0,meteohub,2013-05-12 17:57:00,
2013-05-12 11:02:00,58.8,57.4,30.08,West,277,0.0,2.0,95,0.00,,,0.32,200.0,meteohub,2013-05-12 18:02:00,
2013-05-12 11:07:00,59.0,57.6,30.08,West,277,1.0,2.0,95,0.00,,,0.32,167.0,meteohub,2013-05-12 18:07:00,
2013-05-12 11:12:00,59.0,57.2,30.09,West,277,1.0,2.0,94,0.00,,,0.32,174.0,meteohub,2013-05-12 18:12:00,
2013-05-12 11:17:00,59.2,57.2,30.09,West,277,2.0,3.0,93,0.00,,,0.32,197.0,meteohub,2013-05-12 18:17:00,
2013-05-12 11:22:00,59.4,57.4,30.08,West,277,3.0,4.0,93,0.00,,,0.32,237.0,meteohub,2013-05-12 18:22:00,
2013-05-12 11:27:00,59.5,57.2,30.08,West,277,1.0,5.0,92,0.00,,,0.32,237.0,meteohub,2013-05-12 18:27:00,
2013-05-12 11:32:00,59.5,57.2,30.08,WSW,258,1.0,5.0,92,0.00,,,0.32,206.0,meteohub,2013-05-12 18:32:00,
2013-05-12 11:37:00,59.4,57.4,30.09,WSW,257,4.0,4.0,93,0.00,,,0.32,176.0,meteohub,2013-05-12 18:37:00,
2013-05-12 11:42:00,59.4,57.6,30.09,WSW,257,2.0,5.0,94,0.00,,,0.32,116.0,meteohub,2013-05-12 18:42:00,
2013-05-12 11:47:00,59.4,57.6,30.09,WSW,257,1.0,5.0,94,0.00,,,0.32,100.0,meteohub,2013-05-12 18:47:00,
2013-05-12 11:52:00,59.4,57.6,30.09,WSW,257,0.0,4.0,94,0.00,,,0.32,97.0,meteohub,2013-05-12 18:52:00,
2013-05-12 11:57:00,59.4,57.6,30.09,WSW,257,3.0,3.0,94,0.00,,,0.32,107.0,meteohub,2013-05-12 18:57:00,
2013-05-12 12:02:00,59.2,57.4,30.09,WSW,257,4.0,4.0,94,0.00,,,0.32,127.0,meteohub,2013-05-12 19:02:00,
2013-05-12 12:07:00,59.2,57.4,30.09,SW,226,5.0,5.0,94,0.00,,,0.32,160.0,meteohub,2013-05-12 19:07:00,
2013-05-12 12:12:00,59.0,57.2,30.09,SW,226,2.0,5.0,94,0.00,,,0.32,169.0,meteohub,2013-05-12 19:12:00,
2013-05-12 12:17:00,59.0,57.6,30.09,SW,226,2.0,5.0,95,0.00,,,0.32,178.0,meteohub,2013-05-12 19:17:00,
2013-05-12 12:22:00,59.2,57.7,30.09,SW,226,0.0,5.0,95,0.01,,,0.33,216.0,meteohub,2013-05-12 19:22:00,
2013-05-12 12:27:00,59.4,57.9,30.09,SW,226,0.0,4.0,95,0.01,,,0.33,276.0,meteohub,2013-05-12 19:27:00,
2013-05-12 12:32:00,59.5,58.1,30.09,SW,226,2.0,3.0,95,0.01,,,0.33,223.0,meteohub,2013-05-12 19:32:00,
2013-05-12 12:37:00,59.5,58.1,30.10,WSW,239,1.0,4.0,95,0.02,,,0.34,179.0,meteohub,2013-05-12 19:37:00,
2013-05-12 12:42:00,59.7,58.3,30.09,WSW,239,2.0,4.0,95,0.02,,,0.34,236.0,meteohub,2013-05-12 19:42:00,
2013-05-12 12:47:00,59.9,58.1,30.09,NW,310,2.0,4.0,94,0.02,,,0.34,211.0,meteohub,2013-05-12 19:47:00,
2013-05-12 12:52:00,60.4,58.5,30.09,NW,306,4.0,4.0,93,0.02,,,0.34,232.0,meteohub,2013-05-12 19:52:00,
2013-05-12 12:57:00,61.0,58.6,30.09,NW,304,0.0,4.0,92,0.02,,,0.34,285.0,meteohub,2013-05-12 19:57:00,
2013-05-12 13:02:00,61.0,59.0,30.09,NW,304,0.0,4.0,93,0.02,,,0.34,304.0,meteohub,2013-05-12 20:02:00,
2013-05-12 13:07:00,61.2,59.2,30.09,NW,304,3.0,4.0,93,0.02,,,0.34,264.0,meteohub,2013-05-12 20:07:00,
2013-05-12 13:12:00,61.3,59.5,30.09,West,280,2.0,3.0,94,0.02,,,0.34,181.0,meteohub,2013-05-12 20:12:00,
2013-05-12 13:17:00,61.2,58.8,30.09,West,275,4.0,6.0,92,0.02,,,0.34,167.0,meteohub,2013-05-12 20:17:00,
2013-05-12 13:22:00,61.0,58.3,30.09,West,275,2.0,6.0,91,0.01,,,0.34,202.0,meteohub,2013-05-12 20:22:00,
2013-05-12 13:27:00,61.0,58.6,30.09,West,275,0.0,6.0,92,0.01,,,0.34,229.0,meteohub,2013-05-12 20:27:00,
2013-05-12 13:32:00,61.5,59.5,30.09,West,275,2.0,5.0,93,0.01,,,0.34,214.0,meteohub,2013-05-12 20:32:00,
2013-05-12 13:37:00,61.9,60.1,30.09,WNW,298,2.0,4.0,94,0.00,,,0.34,220.0,meteohub,2013-05-12 20:37:00,
2013-05-12 13:42:00,61.5,59.2,30.09,WNW,294,2.0,4.0,92,0.00,,,0.34,257.0,meteohub,2013-05-12 20:42:00,
2013-05-12 13:47:00,61.5,59.5,30.09,WNW,294,1.0,4.0,93,0.00,,,0.34,258.0,meteohub,2013-05-12 20:47:00,
2013-05-12 13:52:00,62.1,59.7,30.09,WNW,294,0.0,4.0,92,0.00,,,0.34,211.0,meteohub,2013-05-12 20:52:00,
2013-05-12 13:57:00,62.1,59.7,30.09,WNW,294,0.0,4.0,92,0.00,,,0.34,174.0,meteohub,2013-05-12 20:57:00,
2013-05-12 14:02:00,62.2,59.2,30.09,WNW,294,0.0,4.0,90,0.00,,,0.34,202.0,meteohub,2013-05-12 21:02:00,
2013-05-12 14:07:00,62.1,59.2,30.09,WNW,294,1.0,4.0,90,0.00,,,0.34,174.0,meteohub,2013-05-12 21:07:00,
2013-05-12 14:12:00,62.1,59.4,30.10,West,279,4.0,4.0,91,0.00,,,0.34,190.0,meteohub,2013-05-12 21:12:00,
2013-05-12 14:17:00,62.1,59.4,30.09,WNW,286,2.0,5.0,91,0.00,,,0.34,260.0,meteohub,2013-05-12 21:17:00,
2013-05-12 14:22:00,62.4,59.4,30.09,WNW,282,1.0,5.0,90,0.00,,,0.34,322.0,meteohub,2013-05-12 21:22:00,
2013-05-12 14:27:00,62.6,59.4,30.09,WNW,282,2.0,5.0,89,0.00,,,0.34,327.0,meteohub,2013-05-12 21:27:00,
2013-05-12 14:32:00,62.8,59.5,30.09,WNW,282,0.0,4.0,89,0.00,,,0.34,399.0,meteohub,2013-05-12 21:32:00,
2013-05-12 14:37:00,62.8,59.5,30.09,WNW,282,1.0,4.0,89,0.00,,,0.34,339.0,meteohub,2013-05-12 21:37:00,
2013-05-12 14:42:00,63.0,59.7,30.09,West,264,2.0,3.0,89,0.00,,,0.34,244.0,meteohub,2013-05-12 21:42:00,
2013-05-12 14:47:00,62.8,59.5,30.09,West,263,2.0,4.0,89,0.00,,,0.34,223.0,meteohub,2013-05-12 21:47:00,
2013-05-12 14:52:00,62.6,59.4,30.09,West,263,1.0,4.0,89,0.00,,,0.34,330.0,meteohub,2013-05-12 21:52:00,
2013-05-12 14:57:00,62.6,59.4,30.09,West,263,1.0,3.0,89,0.00,,,0.34,471.0,meteohub,2013-05-12 21:57:00,
2013-05-12 15:02:00,63.1,60.1,30.08,West,263,2.0,3.0,90,0.00,,,0.34,378.0,meteohub,2013-05-12 22:02:00,
2013-05-12 15:07:00,63.3,59.4,30.09,West,274,1.0,4.0,87,0.00,,,0.34,343.0,meteohub,2013-05-12 22:07:00,
2013-05-12 15:12:00,63.3,59.7,30.09,West,274,2.0,4.0,88,0.00,,,0.34,306.0,meteohub,2013-05-12 22:12:00,
2013-05-12 15:17:00,63.1,59.5,30.09,WNW,301,3.0,4.0,88,0.00,,,0.34,274.0,meteohub,2013-05-12 22:17:00,
2013-05-12 15:22:00,63.3,60.1,30.09,NW,311,0.0,4.0,89,0.00,,,0.34,211.0,meteohub,2013-05-12 22:22:00,
2013-05-12 15:27:00,63.1,58.3,30.09,NW,319,5.0,7.0,84,0.00,,,0.34,190.0,meteohub,2013-05-12 22:27:00,
2013-05-12 15:32:00,63.1,57.9,30.09,WNW,299,4.0,11.0,83,0.00,,,0.34,190.0,meteohub,2013-05-12 22:32:00,
2013-05-12 15:37:00,63.1,58.6,30.09,NW,324,1.0,11.0,85,0.00,,,0.34,214.0,meteohub,2013-05-12 22:37:00,
2013-05-12 15:42:00,63.0,58.1,30.08,NE,47,1.0,11.0,84,0.00,,,0.34,211.0,meteohub,2013-05-12 22:42:00,
2013-05-12 15:47:00,63.1,57.9,30.08,WNW,288,2.0,9.0,83,0.00,,,0.34,221.0,meteohub,2013-05-12 22:47:00,
2013-05-12 15:52:00,63.1,58.3,30.08,WNW,285,2.0,9.0,84,0.00,,,0.34,209.0,meteohub,2013-05-12 22:52:00,
2013-05-12 15:57:00,63.1,58.8,30.08,WNW,284,0.0,9.0,86,0.00,,,0.34,174.0,meteohub,2013-05-12 22:57:00,
2013-05-12 16:02:00,63.1,58.6,30.08,NW,315,2.0,6.0,85,0.00,,,0.34,178.0,meteohub,2013-05-12 23:02:00,
2013-05-12 16:07:00,63.1,58.6,30.08,NW,312,1.0,5.0,85,0.00,,,0.34,174.0,meteohub,2013-05-12 23:07:00,
2013-05-12 16:12:00,63.0,59.0,30.07,NW,311,1.0,5.0,87,0.00,,,0.34,176.0,meteohub,2013-05-12 23:12:00,
2013-05-12 16:17:00,62.4,59.4,30.07,NW,311,2.0,5.0,90,0.00,,,0.34,163.0,meteohub,2013-05-12 23:17:00,
2013-05-12 16:22:00,62.1,59.2,30.07,NW,311,0.0,3.0,90,0.00,,,0.34,155.0,meteohub,2013-05-12 23:22:00,
2013-05-12 16:27:00,62.1,59.4,30.07,NW,312,2.0,3.0,91,0.00,,,0.34,130.0,meteohub,2013-05-12 23:27:00,
2013-05-12 16:32:00,62.1,59.4,30.07,NW,312,0.0,3.0,91,0.00,,,0.34,165.0,meteohub,2013-05-12 23:32:00,
2013-05-12 16:37:00,62.1,59.4,30.06,NW,311,0.0,2.0,91,0.00,,,0.34,183.0,meteohub,2013-05-12 23:37:00,
2013-05-12 16:42:00,62.1,59.4,30.07,NW,312,0.0,2.0,91,0.00,,,0.34,195.0,meteohub,2013-05-12 23:42:00,
2013-05-12 16:47:00,62.1,58.8,30.06,NW,312,0.0,1.0,89,0.00,,,0.34,149.0,meteohub,2013-05-12 23:47:00,
2013-05-12 16:52:00,62.1,59.2,30.06,NW,312,0.0,1.0,90,0.00,,,0.34,97.0,meteohub,2013-05-12 23:52:00,
2013-05-12 16:57:00,62.1,59.2,30.06,NW,312,0.0,1.0,90,0.00,,,0.34,120.0,meteohub,2013-05-12 23:57:00,
2013-05-12 17:02:00,62.1,58.8,30.06,NW,312,0.0,1.0,89,0.00,,,0.34,128.0,meteohub,2013-05-13 00:02:00,
2013-05-12 17:07:00,62.1,58.8,30.06,NW,312,0.0,1.0,89,0.00,,,0.34,142.0,meteohub,2013-05-13 00:07:00,
2013-05-12 17:12:00,62.1,58.8,30.06,NW,312,1.0,2.0,89,0.00,,,0.34,125.0,meteohub,2013-05-13 00:12:00,
2013-05-12 17:17:00,61.9,58.3,30.06,NW,312,0.0,2.0,88,0.00,,,0.34,104.0,meteohub,2013-05-13 00:17:00,
2013-05-12 17:22:00,61.5,58.6,30.05,NW,311,0.0,2.0,90,0.00,,,0.34,127.0,meteohub,2013-05-13 00:22:00,
2013-05-12 17:27:00,61.2,58.3,30.05,NW,311,1.0,2.0,90,0.00,,,0.34,160.0,meteohub,2013-05-13 00:27:00,
2013-05-12 17:32:00,61.0,58.1,30.04,NW,311,0.0,1.0,90,0.00,,,0.34,137.0,meteohub,2013-05-13 00:32:00,
2013-05-12 17:37:00,61.0,58.1,30.04,NW,311,0.0,2.0,90,0.00,,,0.34,193.0,meteohub,2013-05-13 00:37:00,
2013-05-12 17:42:00,61.3,58.5,30.04,NW,312,1.0,2.0,90,0.00,,,0.34,162.0,meteohub,2013-05-13 00:42:00,
2013-05-12 17:47:00,61.5,57.9,30.04,NW,312,1.0,2.0,88,0.00,,,0.34,134.0,meteohub,2013-05-13 00:47:00,
2013-05-12 17:52:00,61.5,57.9,30.04,NW,312,1.0,2.0,88,0.00,,,0.34,98.0,meteohub,2013-05-13 00:52:00,
2013-05-12 17:57:00,61.2,57.2,30.04,NW,312,0.0,3.0,87,0.00,,,0.34,93.0,meteohub,2013-05-13 00:57:00,
2013-05-12 18:02:00,61.0,57.4,30.04,NW,312,0.0,3.0,88,0.00,,,0.34,60.0,meteohub,2013-05-13 01:02:00,
2013-05-12 18:07:00,61.0,57.4,30.04,NW,311,0.0,4.0,88,0.00,,,0.34,65.0,meteohub,2013-05-13 01:07:00,
2013-05-12 18:12:00,60.6,57.0,30.03,WNW,295,0.0,4.0,88,0.00,,,0.34,81.0,meteohub,2013-05-13 01:12:00,
2013-05-12 18:17:00,60.4,56.8,30.03,WNW,295,0.0,4.0,88,0.00,,,0.34,60.0,meteohub,2013-05-13 01:17:00,
2013-05-12 18:22:00,60.4,57.2,30.03,WNW,295,0.0,3.0,89,0.00,,,0.34,62.0,meteohub,2013-05-13 01:22:00,
2013-05-12 18:27:00,60.3,57.0,30.03,WNW,295,0.0,3.0,89,0.00,,,0.34,44.0,meteohub,2013-05-13 01:27:00,
2013-05-12 18:32:00,59.9,56.7,30.03,WNW,295,0.0,3.0,89,0.00,,,0.34,46.0,meteohub,2013-05-13 01:32:00,
2013-05-12 18:37:00,59.7,56.1,30.03,WNW,295,0.0,1.0,88,0.00,,,0.34,37.0,meteohub,2013-05-13 01:37:00,
2013-05-12 18:42:00,59.7,56.5,30.03,WNW,295,0.0,1.0,89,0.00,,,0.34,32.0,meteohub,2013-05-13 01:42:00,
2013-05-12 18:47:00,59.5,56.3,30.02,WNW,295,0.0,2.0,89,0.00,,,0.34,25.0,meteohub,2013-05-13 01:47:00,
2013-05-12 18:52:00,59.5,56.3,30.03,WNW,295,2.0,2.0,89,0.00,,,0.34,21.0,meteohub,2013-05-13 01:52:00,
2013-05-12 18:57:00,59.2,55.6,30.02,WNW,295,0.0,2.0,88,0.00,,,0.34,12.0,meteohub,2013-05-13 01:57:00,
2013-05-12 19:02:00,59.0,55.8,30.03,WNW,295,0.0,4.0,89,0.00,,,0.34,11.0,meteohub,2013-05-13 02:02:00,
2013-05-12 19:07:00,58.8,55.9,30.03,WNW,295,0.0,4.0,90,0.00,,,0.34,16.0,meteohub,2013-05-13 02:07:00,
2013-05-12 19:12:00,58.6,55.8,30.03,WNW,295,0.0,1.0,90,0.00,,,0.34,18.0,meteohub,2013-05-13 02:12:00,
2013-05-12 19:17:00,58.5,55.6,30.02,WNW,295,0.0,2.0,90,0.00,,,0.34,21.0,meteohub,2013-05-13 02:17:00,
2013-05-12 19:22:00,58.1,55.2,30.03,WNW,295,0.0,2.0,90,0.00,,,0.34,18.0,meteohub,2013-05-13 02:22:00,
2013-05-12 19:27:00,57.7,55.2,30.03,WNW,295,0.0,2.0,91,0.00,,,0.34,16.0,meteohub,2013-05-13 02:27:00,
2013-05-12 19:32:00,57.7,55.4,30.02,WNW,295,0.0,2.0,92,0.00,,,0.34,19.0,meteohub,2013-05-13 02:32:00,
2013-05-12 19:37:00,57.6,55.2,30.02,WNW,295,0.0,1.0,92,0.00,,,0.34,14.0,meteohub,2013-05-13 02:37:00,
2013-05-12 19:42:00,57.4,55.0,30.02,WNW,295,0.0,2.0,92,0.00,,,0.34,9.0,meteohub,2013-05-13 02:42:00,
2013-05-12 19:47:00,57.0,54.7,30.02,WNW,295,1.0,2.0,92,0.00,,,0.34,5.0,meteohub,2013-05-13 02:47:00,
2013-05-12 19:52:00,56.8,54.5,30.02,WNW,295,0.0,2.0,92,0.00,,,0.34,0.0,meteohub,2013-05-13 02:52:00,
2013-05-12 19:57:00,56.7,54.3,30.02,WNW,295,0.0,2.0,92,0.00,,,0.34,0.0,meteohub,2013-05-13 02:57:00,
2013-05-12 20:02:00,56.7,54.7,30.02,WNW,295,0.0,2.0,93,0.00,,,0.34,0.0,meteohub,2013-05-13 03:02:00,
2013-05-12 20:07:00,56.5,54.5,30.02,WNW,295,1.0,1.0,93,0.00,,,0.34,0.0,meteohub,2013-05-13 03:07:00,
2013-05-12 20:12:00,56.3,54.3,30.02,WNW,295,0.0,2.0,93,0.00,,,0.34,0.0,meteohub,2013-05-13 03:12:00,
2013-05-12 20:17:00,56.1,54.1,30.02,WNW,295,0.0,2.0,93,0.00,,,0.34,0.0,meteohub,2013-05-13 03:17:00,
2013-05-12 20:22:00,55.9,54.0,30.02,WNW,295,0.0,2.0,93,0.00,,,0.34,0.0,meteohub,2013-05-13 03:22:00,
2013-05-12 20:27:00,55.9,54.0,30.01,WNW,295,0.0,1.0,93,0.00,,,0.34,0.0,meteohub,2013-05-13 03:27:00,
2013-05-12 20:32:00,55.9,54.0,30.02,WNW,295,0.0,2.0,93,0.00,,,0.34,0.0,meteohub,2013-05-13 03:32:00,
2013-05-12 20:37:00,55.9,54.0,30.02,WNW,295,0.0,2.0,93,0.00,,,0.34,0.0,meteohub,2013-05-13 03:37:00,
2013-05-12 20:42:00,55.8,54.1,30.02,WNW,295,0.0,2.0,94,0.00,,,0.34,0.0,meteohub,2013-05-13 03:42:00,
2013-05-12 20:47:00,55.8,54.1,30.02,WNW,295,0.0,1.0,94,0.00,,,0.34,0.0,meteohub,2013-05-13 03:47:00,
2013-05-12 20:52:00,55.6,54.0,30.02,WNW,295,0.0,1.0,94,0.00,,,0.34,0.0,meteohub,2013-05-13 03:52:00,
2013-05-12 20:57:00,55.4,53.8,30.01,WNW,295,0.0,1.0,94,0.00,,,0.34,0.0,meteohub,2013-05-13 03:57:00,
2013-05-12 21:01:00,55.4,53.8,30.01,WNW,295,0.0,1.0,94,0.00,,,0.34,0.0,meteohub,2013-05-13 04:01:00,
2013-05-12 21:02:00,55.2,53.6,30.01,WNW,295,0.0,1.0,94,0.00,,,0.34,0.0,meteohub,2013-05-13 04:02:00,
2013-05-12 21:05:00,55.2,53.6,30.01,WNW,295,0.0,1.0,94,0.00,,,0.34,0.0,meteohub,2013-05-13 04:05:00,
2013-05-12 21:08:00,55.2,53.6,30.01,WNW,295,0.0,1.0,94,0.00,,,0.34,0.0,meteohub,2013-05-13 04:08:00,
2013-05-12 21:13:00,55.0,53.4,30.02,WNW,295,0.0,1.0,94,0.00,,,0.34,0.0,meteohub,2013-05-13 04:13:00,
2013-05-12 21:15:00,55.0,53.4,30.02,WNW,295,0.0,1.0,94,0.00,,,0.34,0.0,meteohub,2013-05-13 04:15:00,
2013-05-12 21:20:00,55.0,53.4,30.02,WNW,295,0.0,1.0,94,0.00,,,0.34,0.0,meteohub,2013-05-13 04:20:00,
2013-05-12 21:25:00,54.9,53.2,30.02,WNW,295,0.0,2.0,94,0.00,,,0.34,0.0,meteohub,2013-05-13 04:25:00,
2013-05-12 21:30:00,54.9,53.4,30.02,WNW,295,0.0,2.0,95,0.00,,,0.34,0.0,meteohub,2013-05-13 04:30:00,
2013-05-12 21:35:00,54.7,53.2,30.02,WNW,295,0.0,2.0,95,0.00,,,0.34,0.0,meteohub,2013-05-13 04:35:00,
2013-05-12 21:40:00,54.7,53.2,30.02,WNW,295,0.0,3.0,95,0.00,,,0.34,0.0,meteohub,2013-05-13 04:40:00,
2013-05-12 21:45:00,54.9,53.4,30.02,WNW,295,0.0,3.0,95,0.00,,,0.34,0.0,meteohub,2013-05-13 04:45:00,
2013-05-12 21:50:00,54.7,53.2,30.02,WNW,295,0.0,1.0,95,0.00,,,0.34,0.0,meteohub,2013-05-13 04:50:00,
2013-05-12 21:55:00,54.7,53.2,30.02,WNW,295,0.0,1.0,95,0.00,,,0.34,0.0,meteohub,2013-05-13 04:55:00,
2013-05-12 22:00:00,54.7,53.2,30.02,WNW,295,0.0,1.0,95,0.00,,,0.34,0.0,meteohub,2013-05-13 05:00:00,
2013-05-12 22:05:00,54.5,53.1,30.02,WNW,295,0.0,1.0,95,0.00,,,0.34,0.0,meteohub,2013-05-13 05:05:00,
2013-05-12 22:10:00,54.5,53.1,30.02,WNW,295,2.0,2.0,95,0.00,,,0.34,0.0,meteohub,2013-05-13 05:10:00,
2013-05-12 22:15:00,54.5,53.1,30.02,WNW,295,0.0,2.0,95,0.00,,,0.34,0.0,meteohub,2013-05-13 05:15:00,
2013-05-12 22:20:00,54.3,52.9,30.02,WNW,295,1.0,3.0,95,0.00,,,0.34,0.0,meteohub,2013-05-13 05:20:00,
2013-05-12 22:25:00,54.3,53.2,30.02,WNW,295,0.0,3.0,96,0.00,,,0.34,0.0,meteohub,2013-05-13 05:25:00,
2013-05-12 22:30:00,54.1,53.1,30.02,WNW,295,0.0,3.0,96,0.00,,,0.34,0.0,meteohub,2013-05-13 05:30:00,
2013-05-12 22:35:00,54.1,53.1,30.02,WNW,295,0.0,2.0,96,0.01,,,0.35,0.0,meteohub,2013-05-13 05:35:00,
2013-05-12 22:40:00,54.1,53.1,30.02,WNW,295,1.0,1.0,96,0.01,,,0.35,0.0,meteohub,2013-05-13 05:40:00,
2013-05-12 22:45:00,54.1,53.1,30.02,WNW,295,0.0,2.0,96,0.01,,,0.35,0.0,meteohub,2013-05-13 05:45:00,
2013-05-12 22:50:00,54.1,53.1,30.02,WNW,295,0.0,2.0,96,0.01,,,0.35,0.0,meteohub,2013-05-13 05:50:00,
2013-05-12 22:56:00,54.0,52.9,30.01,WNW,295,0.0,2.0,96,0.02,,,0.36,0.0,meteohub,2013-05-13 05:56:00,
2013-05-12 23:01:00,54.0,52.9,30.02,WNW,295,0.0,1.0,96,0.03,,,0.37,0.0,meteohub,2013-05-13 06:01:00,
2013-05-12 23:06:00,54.0,52.9,30.02,WNW,295,0.0,1.0,96,0.03,,,0.37,0.0,meteohub,2013-05-13 06:06:00,
2013-05-12 23:11:00,54.1,53.2,30.01,WNW,295,1.0,2.0,97,0.05,,,0.39,0.0,meteohub,2013-05-13 06:11:00,
2013-05-12 23:16:00,54.0,53.1,30.01,WNW,295,0.0,2.0,97,0.06,,,0.40,0.0,meteohub,2013-05-13 06:16:00,
2013-05-12 23:21:00,54.0,53.1,30.01,WNW,295,0.0,2.0,97,0.06,,,0.40,0.0,meteohub,2013-05-13 06:21:00,
2013-05-12 23:26:00,54.0,53.1,30.01,WNW,295,2.0,2.0,97,0.07,,,0.41,0.0,meteohub,2013-05-13 06:26:00,
2013-05-12 23:31:00,53.8,52.9,30.02,WNW,295,2.0,3.0,97,0.07,,,0.41,0.0,meteohub,2013-05-13 06:31:00,
2013-05-12 23:36:00,53.8,52.9,30.02,West,275,3.0,3.0,97,0.07,,,0.42,0.0,meteohub,2013-05-13 06:36:00,
2013-05-12 23:41:00,53.8,52.9,30.02,West,277,4.0,4.0,97,0.08,,,0.43,0.0,meteohub,2013-05-13 06:41:00,
2013-05-12 23:46:00,53.6,52.7,30.02,WSW,244,0.0,4.0,97,0.10,,,0.45,0.0,meteohub,2013-05-13 06:46:00,
2013-05-12 23:51:00,53.6,52.7,30.02,WSW,244,0.0,4.0,97,0.10,,,0.45,0.0,meteohub,2013-05-13 06:51:00,
2013-05-12 23:56:00,53.8,53.2,30.02,WSW,244,1.0,4.0,98,0.10,,,0.46,0.0,meteohub,2013-05-13 06:56:00,